sensor_id;sensor_type;location;lat;lon;timestamp;P1;durP1;ratioP1;P2;durP2;ratioP2
20480;SDS011;10399;50.754;3.366;2024-03-23T00:54:25;17.92;;;6.50;;
20480;SDS011;10399;50.754;3.366;2024-03-23T00:56:51;18.67;;;6.57;;
20480;SDS011;10399;50.754;3.366;2024-03-23T00:59:18;16.48;;;6.63;;
20480;SDS011;10399;50.754;3.366;2024-03-23T01:01:44;18.75;;;6.97;;
20480;SDS011;10399;50.754;3.366;2024-03-23T01:04:10;10.40;;;5.80;;
20480;SDS011;10399;50.754;3.366;2024-03-23T01:06:36;22.48;;;6.75;;
20480;SDS011;10399;50.754;3.366;2024-03-23T01:09:02;13.70;;;6.57;;
20480;SDS011;10399;50.754;3.366;2024-03-23T01:11:28;17.45;;;6.68;;
20480;SDS011;10399;50.754;3.366;2024-03-23T01:13:54;21.00;;;6.75;;
20480;SDS011;10399;50.754;3.366;2024-03-23T01:16:21;23.17;;;7.03;;
20480;SDS011;10399;50.754;3.366;2024-03-23T01:18:47;25.40;;;6.82;;
20480;SDS011;10399;50.754;3.366;2024-03-23T01:21:13;18.27;;;6.03;;
20480;SDS011;10399;50.754;3.366;2024-03-23T01:23:39;19.88;;;6.38;;
20480;SDS011;10399;50.754;3.366;2024-03-23T01:26:05;21.48;;;6.25;;
20480;SDS011;10399;50.754;3.366;2024-03-23T01:28:31;16.60;;;6.15;;
20480;SDS011;10399;50.754;3.366;2024-03-23T01:30:57;14.82;;;6.30;;
20480;SDS011;10399;50.754;3.366;2024-03-23T01:33:23;21.42;;;6.30;;
20480;SDS011;10399;50.754;3.366;2024-03-23T01:35:49;19.95;;;6.38;;
20480;SDS011;10399;50.754;3.366;2024-03-23T01:38:15;26.55;;;6.97;;
20480;SDS011;10399;50.754;3.366;2024-03-23T01:40:41;13.77;;;5.82;;
20480;SDS011;10399;50.754;3.366;2024-03-23T01:43:08;19.88;;;5.93;;
20480;SDS011;10399;50.754;3.366;2024-03-23T01:45:34;15.25;;;5.53;;
20480;SDS011;10399;50.754;3.366;2024-03-23T01:48:00;13.65;;;5.13;;
20480;SDS011;10399;50.754;3.366;2024-03-23T01:50:27;19.92;;;4.85;;
20480;SDS011;10399;50.754;3.366;2024-03-23T01:52:53;15.45;;;4.70;;
20480;SDS011;10399;50.754;3.366;2024-03-23T01:55:20;13.10;;;4.43;;
20480;SDS011;10399;50.754;3.366;2024-03-23T01:57:46;14.93;;;4.90;;
20480;SDS011;10399;50.754;3.366;2024-03-23T02:00:13;19.25;;;4.75;;
20480;SDS011;10399;50.754;3.366;2024-03-23T02:02:43;11.77;;;4.47;;
20480;SDS011;10399;50.754;3.366;2024-03-23T02:05:12;16.10;;;3.90;;
20480;SDS011;10399;50.754;3.366;2024-03-23T02:07:38;13.90;;;4.18;;
20480;SDS011;10399;50.754;3.366;2024-03-23T02:10:08;11.80;;;3.63;;
20480;SDS011;10399;50.754;3.366;2024-03-23T02:12:35;16.55;;;4.13;;
20480;SDS011;10399;50.754;3.366;2024-03-23T02:15:02;9.35;;;3.20;;
20480;SDS011;10399;50.754;3.366;2024-03-23T02:17:29;18.10;;;3.80;;
20480;SDS011;10399;50.754;3.366;2024-03-23T02:19:56;8.80;;;2.78;;
20480;SDS011;10399;50.754;3.366;2024-03-23T02:22:22;16.70;;;4.28;;
20480;SDS011;10399;50.754;3.366;2024-03-23T02:24:48;15.65;;;3.50;;
20480;SDS011;10399;50.754;3.366;2024-03-23T02:27:14;21.08;;;3.13;;
20480;SDS011;10399;50.754;3.366;2024-03-23T02:29:40;12.98;;;3.17;;
20480;SDS011;10399;50.754;3.366;2024-03-23T02:32:06;15.32;;;3.28;;
20480;SDS011;10399;50.754;3.366;2024-03-23T02:34:34;16.60;;;3.55;;
20480;SDS011;10399;50.754;3.366;2024-03-23T02:37:01;12.02;;;3.20;;
20480;SDS011;10399;50.754;3.366;2024-03-23T02:39:27;17.63;;;3.50;;
20480;SDS011;10399;50.754;3.366;2024-03-23T02:41:53;8.85;;;2.92;;
20480;SDS011;10399;50.754;3.366;2024-03-23T02:44:19;12.77;;;2.67;;
20480;SDS011;10399;50.754;3.366;2024-03-23T02:46:45;12.10;;;3.30;;
20480;SDS011;10399;50.754;3.366;2024-03-23T02:49:11;18.05;;;3.38;;
20480;SDS011;10399;50.754;3.366;2024-03-23T02:51:38;13.20;;;3.20;;
20480;SDS011;10399;50.754;3.366;2024-03-23T02:54:04;11.88;;;3.35;;
20480;SDS011;10399;50.754;3.366;2024-03-23T02:56:32;13.98;;;2.95;;
20480;SDS011;10399;50.754;3.366;2024-03-23T02:58:58;13.18;;;2.88;;
20480;SDS011;10399;50.754;3.366;2024-03-23T03:01:24;20.50;;;3.72;;
20480;SDS011;10399;50.754;3.366;2024-03-23T03:03:51;12.57;;;3.13;;
20480;SDS011;10399;50.754;3.366;2024-03-23T03:06:26;18.45;;;3.80;;
20480;SDS011;10399;50.754;3.366;2024-03-23T03:08:53;14.02;;;3.13;;
20480;SDS011;10399;50.754;3.366;2024-03-23T03:11:18;14.40;;;3.55;;
20480;SDS011;10399;50.754;3.366;2024-03-23T03:13:46;16.23;;;3.40;;
20480;SDS011;10399;50.754;3.366;2024-03-23T03:16:12;15.63;;;3.47;;
20480;SDS011;10399;50.754;3.366;2024-03-23T03:18:38;14.38;;;3.45;;
20480;SDS011;10399;50.754;3.366;2024-03-23T03:21:06;11.10;;;3.00;;
20480;SDS011;10399;50.754;3.366;2024-03-23T03:23:36;14.73;;;3.58;;
20480;SDS011;10399;50.754;3.366;2024-03-23T03:26:03;15.25;;;3.72;;
20480;SDS011;10399;50.754;3.366;2024-03-23T03:28:32;14.25;;;3.15;;
20480;SDS011;10399;50.754;3.366;2024-03-23T03:30:59;14.50;;;3.00;;
20480;SDS011;10399;50.754;3.366;2024-03-23T03:33:26;15.18;;;3.65;;
20480;SDS011;10399;50.754;3.366;2024-03-23T03:35:52;10.27;;;3.35;;
20480;SDS011;10399;50.754;3.366;2024-03-23T03:38:19;22.90;;;3.92;;
20480;SDS011;10399;50.754;3.366;2024-03-23T03:40:46;16.30;;;3.53;;
20480;SDS011;10399;50.754;3.366;2024-03-23T03:43:12;15.30;;;3.67;;
20480;SDS011;10399;50.754;3.366;2024-03-23T03:45:38;14.35;;;3.10;;
20480;SDS011;10399;50.754;3.366;2024-03-23T03:48:05;11.20;;;3.28;;
20480;SDS011;10399;50.754;3.366;2024-03-23T03:50:31;8.80;;;2.97;;
20480;SDS011;10399;50.754;3.366;2024-03-23T03:52:57;17.98;;;3.45;;
20480;SDS011;10399;50.754;3.366;2024-03-23T03:55:23;20.38;;;4.18;;
20480;SDS011;10399;50.754;3.366;2024-03-23T03:57:49;17.25;;;3.50;;
20480;SDS011;10399;50.754;3.366;2024-03-23T04:00:15;16.13;;;3.90;;
20480;SDS011;10399;50.754;3.366;2024-03-23T04:02:41;14.38;;;4.25;;
20480;SDS011;10399;50.754;3.366;2024-03-23T04:05:07;15.50;;;3.45;;
20480;SDS011;10399;50.754;3.366;2024-03-23T04:07:33;20.60;;;3.50;;
20480;SDS011;10399;50.754;3.366;2024-03-23T04:10:00;17.27;;;3.88;;
20480;SDS011;10399;50.754;3.366;2024-03-23T04:12:32;13.07;;;3.25;;
20480;SDS011;10399;50.754;3.366;2024-03-23T04:14:59;16.40;;;3.30;;
20480;SDS011;10399;50.754;3.366;2024-03-23T04:17:26;18.90;;;3.67;;
20480;SDS011;10399;50.754;3.366;2024-03-23T04:19:57;20.42;;;3.70;;
20480;SDS011;10399;50.754;3.366;2024-03-23T04:22:24;13.63;;;3.00;;
20480;SDS011;10399;50.754;3.366;2024-03-23T04:24:54;18.63;;;3.35;;
20480;SDS011;10399;50.754;3.366;2024-03-23T04:27:21;13.95;;;3.55;;
20480;SDS011;10399;50.754;3.366;2024-03-23T04:29:48;17.83;;;3.50;;
20480;SDS011;10399;50.754;3.366;2024-03-23T04:32:18;15.15;;;3.80;;
20480;SDS011;10399;50.754;3.366;2024-03-23T04:34:44;12.80;;;2.83;;
20480;SDS011;10399;50.754;3.366;2024-03-23T04:37:10;14.25;;;3.50;;
20480;SDS011;10399;50.754;3.366;2024-03-23T04:39:37;15.90;;;3.28;;
20480;SDS011;10399;50.754;3.366;2024-03-23T04:42:04;18.15;;;3.08;;
20480;SDS011;10399;50.754;3.366;2024-03-23T04:47:02;14.73;;;3.33;;
20480;SDS011;10399;50.754;3.366;2024-03-23T04:49:28;15.77;;;2.97;;
20480;SDS011;10399;50.754;3.366;2024-03-23T04:51:55;19.48;;;3.13;;
20480;SDS011;10399;50.754;3.366;2024-03-23T04:54:20;17.35;;;2.80;;
20480;SDS011;10399;50.754;3.366;2024-03-23T04:56:46;9.13;;;3.00;;
20480;SDS011;10399;50.754;3.366;2024-03-23T04:59:13;9.70;;;2.90;;
20480;SDS011;10399;50.754;3.366;2024-03-23T05:01:38;18.92;;;3.38;;
20480;SDS011;10399;50.754;3.366;2024-03-23T05:04:07;12.73;;;2.67;;
20480;SDS011;10399;50.754;3.366;2024-03-23T05:06:34;18.27;;;3.45;;
20480;SDS011;10399;50.754;3.366;2024-03-23T05:09:00;18.15;;;3.30;;
20480;SDS011;10399;50.754;3.366;2024-03-23T05:11:40;13.43;;;2.80;;
20480;SDS011;10399;50.754;3.366;2024-03-23T05:14:11;17.88;;;3.10;;
20480;SDS011;10399;50.754;3.366;2024-03-23T05:16:39;15.45;;;3.20;;
20480;SDS011;10399;50.754;3.366;2024-03-23T05:19:05;15.07;;;3.20;;
20480;SDS011;10399;50.754;3.366;2024-03-23T05:21:31;24.90;;;3.35;;
20480;SDS011;10399;50.754;3.366;2024-03-23T05:23:57;16.95;;;3.10;;
20480;SDS011;10399;50.754;3.366;2024-03-23T05:26:23;13.77;;;3.88;;
20480;SDS011;10399;50.754;3.366;2024-03-23T05:28:49;18.65;;;3.53;;
20480;SDS011;10399;50.754;3.366;2024-03-23T05:31:28;21.48;;;3.38;;
20480;SDS011;10399;50.754;3.366;2024-03-23T05:33:55;13.10;;;3.38;;
20480;SDS011;10399;50.754;3.366;2024-03-23T05:36:21;15.65;;;2.55;;
20480;SDS011;10399;50.754;3.366;2024-03-23T05:38:49;12.13;;;3.10;;
20480;SDS011;10399;50.754;3.366;2024-03-23T05:41:15;14.70;;;2.55;;
20480;SDS011;10399;50.754;3.366;2024-03-23T05:43:41;19.85;;;3.35;;
20480;SDS011;10399;50.754;3.366;2024-03-23T05:46:07;16.08;;;3.50;;
20480;SDS011;10399;50.754;3.366;2024-03-23T05:48:34;20.92;;;3.00;;
20480;SDS011;10399;50.754;3.366;2024-03-23T05:51:00;13.30;;;3.22;;
20480;SDS011;10399;50.754;3.366;2024-03-23T05:53:26;11.98;;;3.25;;
20480;SDS011;10399;50.754;3.366;2024-03-23T05:56:00;18.58;;;3.58;;
20480;SDS011;10399;50.754;3.366;2024-03-23T05:58:29;13.90;;;3.35;;
20480;SDS011;10399;50.754;3.366;2024-03-23T06:00:59;14.75;;;2.70;;
20480;SDS011;10399;50.754;3.366;2024-03-23T06:03:26;15.45;;;2.92;;
20480;SDS011;10399;50.754;3.366;2024-03-23T06:05:53;14.20;;;3.03;;
20480;SDS011;10399;50.754;3.366;2024-03-23T06:08:19;12.43;;;2.78;;
20480;SDS011;10399;50.754;3.366;2024-03-23T06:10:46;12.57;;;2.78;;
20480;SDS011;10399;50.754;3.366;2024-03-23T06:13:15;13.82;;;3.00;;
20480;SDS011;10399;50.754;3.366;2024-03-23T06:15:43;10.95;;;2.80;;
20480;SDS011;10399;50.754;3.366;2024-03-23T06:18:10;10.77;;;2.97;;
20480;SDS011;10399;50.754;3.366;2024-03-23T06:20:37;17.50;;;3.15;;
20480;SDS011;10399;50.754;3.366;2024-03-23T06:23:03;13.15;;;2.92;;
20480;SDS011;10399;50.754;3.366;2024-03-23T06:25:29;15.48;;;3.58;;
20480;SDS011;10399;50.754;3.366;2024-03-23T06:27:55;12.95;;;3.08;;
20480;SDS011;10399;50.754;3.366;2024-03-23T06:30:23;11.55;;;2.92;;
20480;SDS011;10399;50.754;3.366;2024-03-23T06:32:49;16.55;;;3.25;;
20480;SDS011;10399;50.754;3.366;2024-03-23T06:35:15;16.13;;;3.15;;
20480;SDS011;10399;50.754;3.366;2024-03-23T06:37:41;15.10;;;3.10;;
20480;SDS011;10399;50.754;3.366;2024-03-23T06:40:08;12.90;;;2.47;;
20480;SDS011;10399;50.754;3.366;2024-03-23T06:42:35;8.27;;;2.50;;
20480;SDS011;10399;50.754;3.366;2024-03-23T06:45:02;7.47;;;2.80;;
20480;SDS011;10399;50.754;3.366;2024-03-23T06:47:30;12.82;;;2.70;;
20480;SDS011;10399;50.754;3.366;2024-03-23T06:49:56;20.00;;;2.78;;
20480;SDS011;10399;50.754;3.366;2024-03-23T06:52:22;11.45;;;3.00;;
20480;SDS011;10399;50.754;3.366;2024-03-23T06:54:48;17.83;;;3.20;;
20480;SDS011;10399;50.754;3.366;2024-03-23T06:57:14;11.95;;;2.40;;
20480;SDS011;10399;50.754;3.366;2024-03-23T06:59:40;8.80;;;2.38;;
20480;SDS011;10399;50.754;3.366;2024-03-23T07:02:06;12.10;;;2.58;;
20480;SDS011;10399;50.754;3.366;2024-03-23T07:04:34;12.25;;;2.67;;
20480;SDS011;10399;50.754;3.366;2024-03-23T07:07:00;16.63;;;2.90;;
20480;SDS011;10399;50.754;3.366;2024-03-23T07:09:27;16.20;;;2.60;;
20480;SDS011;10399;50.754;3.366;2024-03-23T07:11:54;14.55;;;2.53;;
20480;SDS011;10399;50.754;3.366;2024-03-23T07:14:21;13.77;;;2.58;;
20480;SDS011;10399;50.754;3.366;2024-03-23T07:16:48;11.93;;;2.20;;
20480;SDS011;10399;50.754;3.366;2024-03-23T07:19:15;14.45;;;2.53;;
20480;SDS011;10399;50.754;3.366;2024-03-23T07:21:42;10.05;;;2.28;;
20480;SDS011;10399;50.754;3.366;2024-03-23T07:24:08;14.43;;;2.83;;
20480;SDS011;10399;50.754;3.366;2024-03-23T07:26:35;8.65;;;2.70;;
20480;SDS011;10399;50.754;3.366;2024-03-23T07:29:01;10.77;;;2.55;;
20480;SDS011;10399;50.754;3.366;2024-03-23T07:31:27;13.25;;;2.53;;
20480;SDS011;10399;50.754;3.366;2024-03-23T07:33:53;10.13;;;2.28;;
20480;SDS011;10399;50.754;3.366;2024-03-23T07:36:19;14.98;;;2.55;;
20480;SDS011;10399;50.754;3.366;2024-03-23T07:38:46;13.23;;;3.00;;
20480;SDS011;10399;50.754;3.366;2024-03-23T07:41:16;12.52;;;2.50;;
20480;SDS011;10399;50.754;3.366;2024-03-23T07:43:43;14.27;;;2.22;;
20480;SDS011;10399;50.754;3.366;2024-03-23T07:46:09;13.27;;;2.15;;
20480;SDS011;10399;50.754;3.366;2024-03-23T07:48:35;11.18;;;2.42;;
20480;SDS011;10399;50.754;3.366;2024-03-23T07:51:17;11.43;;;2.00;;
20480;SDS011;10399;50.754;3.366;2024-03-23T07:53:45;10.43;;;1.90;;
20480;SDS011;10399;50.754;3.366;2024-03-23T07:56:11;12.77;;;2.47;;
20480;SDS011;10399;50.754;3.366;2024-03-23T07:58:40;12.82;;;1.92;;
20480;SDS011;10399;50.754;3.366;2024-03-23T08:01:13;14.65;;;2.30;;
20480;SDS011;10399;50.754;3.366;2024-03-23T08:03:44;10.90;;;2.25;;
20480;SDS011;10399;50.754;3.366;2024-03-23T08:06:12;12.93;;;2.55;;
20480;SDS011;10399;50.754;3.366;2024-03-23T08:08:44;7.97;;;2.10;;
20480;SDS011;10399;50.754;3.366;2024-03-23T08:11:11;12.73;;;2.65;;
20480;SDS011;10399;50.754;3.366;2024-03-23T08:13:38;9.27;;;2.38;;
20480;SDS011;10399;50.754;3.366;2024-03-23T08:16:05;10.43;;;2.10;;
20480;SDS011;10399;50.754;3.366;2024-03-23T08:18:31;14.18;;;2.50;;
20480;SDS011;10399;50.754;3.366;2024-03-23T08:21:05;12.80;;;2.15;;
20480;SDS011;10399;50.754;3.366;2024-03-23T08:23:32;6.97;;;1.95;;
20480;SDS011;10399;50.754;3.366;2024-03-23T08:26:03;8.43;;;1.90;;
20480;SDS011;10399;50.754;3.366;2024-03-23T08:28:30;12.25;;;2.47;;
20480;SDS011;10399;50.754;3.366;2024-03-23T08:30:56;12.25;;;2.10;;
20480;SDS011;10399;50.754;3.366;2024-03-23T08:33:23;15.90;;;2.42;;
20480;SDS011;10399;50.754;3.366;2024-03-23T08:35:56;15.40;;;2.38;;
20480;SDS011;10399;50.754;3.366;2024-03-23T08:38:23;9.80;;;2.28;;
20480;SDS011;10399;50.754;3.366;2024-03-23T08:40:59;15.10;;;2.65;;
20480;SDS011;10399;50.754;3.366;2024-03-23T08:43:26;13.45;;;2.00;;
20480;SDS011;10399;50.754;3.366;2024-03-23T08:45:52;7.90;;;2.13;;
20480;SDS011;10399;50.754;3.366;2024-03-23T08:48:19;10.35;;;2.28;;
20480;SDS011;10399;50.754;3.366;2024-03-23T08:50:46;8.60;;;1.90;;
20480;SDS011;10399;50.754;3.366;2024-03-23T08:53:14;9.90;;;2.22;;
20480;SDS011;10399;50.754;3.366;2024-03-23T08:55:40;12.45;;;2.33;;
20480;SDS011;10399;50.754;3.366;2024-03-23T08:58:06;15.77;;;2.50;;
20480;SDS011;10399;50.754;3.366;2024-03-23T09:00:34;15.95;;;2.17;;
20480;SDS011;10399;50.754;3.366;2024-03-23T09:03:00;12.45;;;2.10;;
20480;SDS011;10399;50.754;3.366;2024-03-23T09:05:27;8.35;;;2.15;;
20480;SDS011;10399;50.754;3.366;2024-03-23T09:07:56;10.05;;;1.83;;
20480;SDS011;10399;50.754;3.366;2024-03-23T09:10:22;9.63;;;1.98;;
20480;SDS011;10399;50.754;3.366;2024-03-23T09:12:48;11.63;;;2.28;;
20480;SDS011;10399;50.754;3.366;2024-03-23T09:15:14;10.50;;;2.20;;
20480;SDS011;10399;50.754;3.366;2024-03-23T09:17:40;10.05;;;2.00;;
20480;SDS011;10399;50.754;3.366;2024-03-23T09:20:07;11.45;;;2.45;;
20480;SDS011;10399;50.754;3.366;2024-03-23T09:22:34;10.38;;;2.00;;
20480;SDS011;10399;50.754;3.366;2024-03-23T09:25:00;8.57;;;2.10;;
20480;SDS011;10399;50.754;3.366;2024-03-23T09:27:26;13.13;;;2.50;;
20480;SDS011;10399;50.754;3.366;2024-03-23T09:29:52;12.60;;;2.03;;
20480;SDS011;10399;50.754;3.366;2024-03-23T09:32:18;13.15;;;2.10;;
20480;SDS011;10399;50.754;3.366;2024-03-23T09:34:44;12.32;;;2.88;;
20480;SDS011;10399;50.754;3.366;2024-03-23T09:37:10;10.10;;;1.92;;
20480;SDS011;10399;50.754;3.366;2024-03-23T09:39:37;11.82;;;2.28;;
20480;SDS011;10399;50.754;3.366;2024-03-23T09:42:03;11.32;;;1.98;;
20480;SDS011;10399;50.754;3.366;2024-03-23T09:44:30;9.82;;;1.80;;
20480;SDS011;10399;50.754;3.366;2024-03-23T09:46:56;10.82;;;1.70;;
20480;SDS011;10399;50.754;3.366;2024-03-23T09:49:22;7.60;;;1.95;;
20480;SDS011;10399;50.754;3.366;2024-03-23T09:51:48;13.90;;;2.03;;
20480;SDS011;10399;50.754;3.366;2024-03-23T09:54:14;9.23;;;2.03;;
20480;SDS011;10399;50.754;3.366;2024-03-23T09:56:40;10.40;;;1.80;;
20480;SDS011;10399;50.754;3.366;2024-03-23T09:59:07;8.77;;;2.22;;
20480;SDS011;10399;50.754;3.366;2024-03-23T10:01:33;10.85;;;2.08;;
20480;SDS011;10399;50.754;3.366;2024-03-23T10:03:59;10.38;;;1.90;;
20480;SDS011;10399;50.754;3.366;2024-03-23T10:06:25;11.63;;;2.00;;
20480;SDS011;10399;50.754;3.366;2024-03-23T10:08:52;4.90;;;1.88;;
20480;SDS011;10399;50.754;3.366;2024-03-23T10:11:19;9.02;;;1.98;;
20480;SDS011;10399;50.754;3.366;2024-03-23T10:13:46;5.95;;;1.63;;
20480;SDS011;10399;50.754;3.366;2024-03-23T10:16:20;11.73;;;2.20;;
20480;SDS011;10399;50.754;3.366;2024-03-23T10:18:48;8.55;;;1.60;;
20480;SDS011;10399;50.754;3.366;2024-03-23T10:21:14;10.68;;;2.30;;
20480;SDS011;10399;50.754;3.366;2024-03-23T10:23:42;7.20;;;2.00;;
20480;SDS011;10399;50.754;3.366;2024-03-23T10:26:24;10.88;;;2.00;;
20480;SDS011;10399;50.754;3.366;2024-03-23T10:28:52;8.07;;;1.70;;
20480;SDS011;10399;50.754;3.366;2024-03-23T10:31:33;12.13;;;2.20;;
20480;SDS011;10399;50.754;3.366;2024-03-23T10:34:03;8.30;;;1.45;;
20480;SDS011;10399;50.754;3.366;2024-03-23T10:36:29;10.93;;;2.17;;
20480;SDS011;10399;50.754;3.366;2024-03-23T10:38:56;7.90;;;1.75;;
20480;SDS011;10399;50.754;3.366;2024-03-23T10:41:28;8.95;;;1.80;;
20480;SDS011;10399;50.754;3.366;2024-03-23T10:43:56;11.82;;;2.28;;
20480;SDS011;10399;50.754;3.366;2024-03-23T10:46:24;8.75;;;1.77;;
20480;SDS011;10399;50.754;3.366;2024-03-23T10:48:50;9.13;;;1.90;;
20480;SDS011;10399;50.754;3.366;2024-03-23T10:51:16;10.90;;;1.85;;
20480;SDS011;10399;50.754;3.366;2024-03-23T10:53:42;9.18;;;1.92;;
20480;SDS011;10399;50.754;3.366;2024-03-23T10:56:10;9.18;;;1.88;;
20480;SDS011;10399;50.754;3.366;2024-03-23T10:58:38;7.93;;;1.80;;
20480;SDS011;10399;50.754;3.366;2024-03-23T11:01:06;8.40;;;1.70;;
20480;SDS011;10399;50.754;3.366;2024-03-23T11:03:36;7.88;;;2.10;;
20480;SDS011;10399;50.754;3.366;2024-03-23T11:06:04;10.13;;;1.83;;
20480;SDS011;10399;50.754;3.366;2024-03-23T11:08:38;10.95;;;1.80;;
20480;SDS011;10399;50.754;3.366;2024-03-23T11:11:38;6.68;;;1.88;;
20480;SDS011;10399;50.754;3.366;2024-03-23T11:13:59;9.68;;;1.77;;
20480;SDS011;10399;50.754;3.366;2024-03-23T11:16:26;4.72;;;1.90;;
20480;SDS011;10399;50.754;3.366;2024-03-23T11:22:02;10.65;;;2.20;;
20480;SDS011;10399;50.754;3.366;2024-03-23T11:24:28;10.15;;;1.98;;
20480;SDS011;10399;50.754;3.366;2024-03-23T11:26:55;10.77;;;1.98;;
20480;SDS011;10399;50.754;3.366;2024-03-23T11:29:21;7.90;;;2.03;;
20480;SDS011;10399;50.754;3.366;2024-03-23T11:31:53;9.93;;;2.33;;
20480;SDS011;10399;50.754;3.366;2024-03-23T11:34:19;7.88;;;2.20;;
20480;SDS011;10399;50.754;3.366;2024-03-23T11:36:46;11.48;;;1.77;;
20480;SDS011;10399;50.754;3.366;2024-03-23T11:41:50;7.40;;;2.05;;
20480;SDS011;10399;50.754;3.366;2024-03-23T11:44:22;10.93;;;2.28;;
20480;SDS011;10399;50.754;3.366;2024-03-23T11:46:50;9.23;;;1.40;;
20480;SDS011;10399;50.754;3.366;2024-03-23T11:51:49;6.45;;;1.63;;
20480;SDS011;10399;50.754;3.366;2024-03-23T11:54:19;7.85;;;1.33;;
20480;SDS011;10399;50.754;3.366;2024-03-23T11:56:56;6.97;;;1.85;;
20480;SDS011;10399;50.754;3.366;2024-03-23T11:59:34;8.60;;;1.80;;
20480;SDS011;10399;50.754;3.366;2024-03-23T12:02:00;6.28;;;1.88;;
20480;SDS011;10399;50.754;3.366;2024-03-23T12:04:36;5.30;;;1.25;;
20480;SDS011;10399;50.754;3.366;2024-03-23T12:07:21;5.40;;;1.45;;
20480;SDS011;10399;50.754;3.366;2024-03-23T12:10:02;5.22;;;1.40;;
20480;SDS011;10399;50.754;3.366;2024-03-23T12:12:29;5.63;;;1.38;;
20480;SDS011;10399;50.754;3.366;2024-03-23T12:15:02;6.47;;;1.60;;
20480;SDS011;10399;50.754;3.366;2024-03-23T12:17:30;6.70;;;1.83;;
20480;SDS011;10399;50.754;3.366;2024-03-23T12:19:56;7.15;;;1.92;;
20480;SDS011;10399;50.754;3.366;2024-03-23T12:22:23;6.40;;;1.77;;
20480;SDS011;10399;50.754;3.366;2024-03-23T12:24:50;10.50;;;1.95;;
20480;SDS011;10399;50.754;3.366;2024-03-23T12:27:16;7.25;;;1.70;;
20480;SDS011;10399;50.754;3.366;2024-03-23T12:29:42;6.93;;;1.60;;
20480;SDS011;10399;50.754;3.366;2024-03-23T12:32:11;6.70;;;1.40;;
20480;SDS011;10399;50.754;3.366;2024-03-23T12:34:38;9.10;;;1.50;;
20480;SDS011;10399;50.754;3.366;2024-03-23T12:37:04;6.07;;;1.70;;
20480;SDS011;10399;50.754;3.366;2024-03-23T12:39:31;6.20;;;1.70;;
20480;SDS011;10399;50.754;3.366;2024-03-23T12:41:57;7.18;;;1.70;;
20480;SDS011;10399;50.754;3.366;2024-03-23T12:44:24;5.30;;;1.35;;
20480;SDS011;10399;50.754;3.366;2024-03-23T12:46:50;7.72;;;1.65;;
20480;SDS011;10399;50.754;3.366;2024-03-23T12:49:16;6.35;;;1.75;;
20480;SDS011;10399;50.754;3.366;2024-03-23T12:51:53;9.65;;;1.90;;
20480;SDS011;10399;50.754;3.366;2024-03-23T12:54:24;5.68;;;1.55;;
20480;SDS011;10399;50.754;3.366;2024-03-23T12:56:51;9.45;;;1.88;;
20480;SDS011;10399;50.754;3.366;2024-03-23T12:59:17;12.70;;;2.03;;
20480;SDS011;10399;50.754;3.366;2024-03-23T13:01:44;8.05;;;1.63;;
20480;SDS011;10399;50.754;3.366;2024-03-23T13:04:10;7.15;;;1.45;;
20480;SDS011;10399;50.754;3.366;2024-03-23T13:06:36;6.95;;;1.90;;
20480;SDS011;10399;50.754;3.366;2024-03-23T13:09:02;5.13;;;1.40;;
20480;SDS011;10399;50.754;3.366;2024-03-23T13:11:30;9.73;;;1.63;;
20480;SDS011;10399;50.754;3.366;2024-03-23T13:13:56;7.93;;;1.67;;
20480;SDS011;10399;50.754;3.366;2024-03-23T13:16:22;9.65;;;2.28;;
20480;SDS011;10399;50.754;3.366;2024-03-23T13:18:49;7.80;;;1.80;;
20480;SDS011;10399;50.754;3.366;2024-03-23T13:21:15;7.32;;;2.03;;
20480;SDS011;10399;50.754;3.366;2024-03-23T13:23:41;6.80;;;1.80;;
20480;SDS011;10399;50.754;3.366;2024-03-23T13:26:11;8.60;;;1.60;;
20480;SDS011;10399;50.754;3.366;2024-03-23T13:28:37;6.65;;;1.50;;
20480;SDS011;10399;50.754;3.366;2024-03-23T13:31:03;4.78;;;1.60;;
20480;SDS011;10399;50.754;3.366;2024-03-23T13:33:32;7.93;;;1.52;;
20480;SDS011;10399;50.754;3.366;2024-03-23T13:35:58;9.48;;;1.85;;
20480;SDS011;10399;50.754;3.366;2024-03-23T13:38:24;10.18;;;1.83;;
20480;SDS011;10399;50.754;3.366;2024-03-23T13:40:55;5.85;;;2.00;;
20480;SDS011;10399;50.754;3.366;2024-03-23T13:43:22;9.68;;;1.83;;
20480;SDS011;10399;50.754;3.366;2024-03-23T13:45:58;6.50;;;1.77;;
20480;SDS011;10399;50.754;3.366;2024-03-23T13:48:25;13.18;;;2.05;;
20480;SDS011;10399;50.754;3.366;2024-03-23T13:50:59;7.78;;;1.80;;
20480;SDS011;10399;50.754;3.366;2024-03-23T13:53:26;6.68;;;1.35;;
20480;SDS011;10399;50.754;3.366;2024-03-23T13:55:57;6.63;;;1.80;;
20480;SDS011;10399;50.754;3.366;2024-03-23T13:58:24;7.55;;;1.52;;
20480;SDS011;10399;50.754;3.366;2024-03-23T14:00:56;5.45;;;1.67;;
20480;SDS011;10399;50.754;3.366;2024-03-23T14:03:23;8.00;;;2.05;;
20480;SDS011;10399;50.754;3.366;2024-03-23T14:05:49;6.38;;;1.60;;
20480;SDS011;10399;50.754;3.366;2024-03-23T14:08:17;5.72;;;1.90;;
20480;SDS011;10399;50.754;3.366;2024-03-23T14:10:43;7.95;;;1.63;;
20480;SDS011;10399;50.754;3.366;2024-03-23T14:13:10;9.70;;;2.10;;
20480;SDS011;10399;50.754;3.366;2024-03-23T14:15:36;5.18;;;1.63;;
20480;SDS011;10399;50.754;3.366;2024-03-23T14:18:02;6.60;;;1.80;;
20480;SDS011;10399;50.754;3.366;2024-03-23T14:20:29;7.30;;;1.52;;
20480;SDS011;10399;50.754;3.366;2024-03-23T14:22:55;6.70;;;2.08;;
20480;SDS011;10399;50.754;3.366;2024-03-23T14:25:21;7.95;;;1.95;;
20480;SDS011;10399;50.754;3.366;2024-03-23T14:27:52;5.70;;;1.83;;
20480;SDS011;10399;50.754;3.366;2024-03-23T14:30:18;10.32;;;2.17;;
20480;SDS011;10399;50.754;3.366;2024-03-23T14:32:44;9.18;;;2.45;;
20480;SDS011;10399;50.754;3.366;2024-03-23T14:35:10;6.07;;;1.80;;
20480;SDS011;10399;50.754;3.366;2024-03-23T14:37:37;6.88;;;1.75;;
20480;SDS011;10399;50.754;3.366;2024-03-23T14:40:03;7.40;;;2.28;;
20480;SDS011;10399;50.754;3.366;2024-03-23T14:42:30;7.38;;;1.85;;
20480;SDS011;10399;50.754;3.366;2024-03-23T14:44:59;5.03;;;1.55;;
20480;SDS011;10399;50.754;3.366;2024-03-23T14:47:25;6.22;;;1.92;;
20480;SDS011;10399;50.754;3.366;2024-03-23T14:49:51;8.23;;;1.42;;
20480;SDS011;10399;50.754;3.366;2024-03-23T14:52:17;6.22;;;1.40;;
20480;SDS011;10399;50.754;3.366;2024-03-23T14:54:46;9.23;;;1.75;;
20480;SDS011;10399;50.754;3.366;2024-03-23T14:57:12;8.02;;;1.73;;
20480;SDS011;10399;50.754;3.366;2024-03-23T14:59:38;8.35;;;1.80;;
20480;SDS011;10399;50.754;3.366;2024-03-23T15:02:06;6.50;;;1.73;;
20480;SDS011;10399;50.754;3.366;2024-03-23T15:04:33;6.50;;;1.63;;
20480;SDS011;10399;50.754;3.366;2024-03-23T15:07:00;5.13;;;1.40;;
20480;SDS011;10399;50.754;3.366;2024-03-23T15:09:26;6.93;;;1.42;;
20480;SDS011;10399;50.754;3.366;2024-03-23T15:11:53;6.68;;;1.75;;
20480;SDS011;10399;50.754;3.366;2024-03-23T15:14:23;7.80;;;1.60;;
20480;SDS011;10399;50.754;3.366;2024-03-23T15:16:49;4.85;;;1.52;;
20480;SDS011;10399;50.754;3.366;2024-03-23T15:19:16;7.03;;;1.70;;
20480;SDS011;10399;50.754;3.366;2024-03-23T15:21:43;4.68;;;1.50;;
20480;SDS011;10399;50.754;3.366;2024-03-23T15:24:10;4.60;;;1.63;;
20480;SDS011;10399;50.754;3.366;2024-03-23T15:26:42;11.95;;;1.95;;
20480;SDS011;10399;50.754;3.366;2024-03-23T15:29:12;14.00;;;1.98;;
20480;SDS011;10399;50.754;3.366;2024-03-23T15:31:45;10.00;;;1.92;;
20480;SDS011;10399;50.754;3.366;2024-03-23T15:34:23;7.05;;;2.28;;
20480;SDS011;10399;50.754;3.366;2024-03-23T15:37:21;6.03;;;1.38;;
20480;SDS011;10399;50.754;3.366;2024-03-23T15:40:01;6.63;;;2.05;;
20480;SDS011;10399;50.754;3.366;2024-03-23T15:43:15;11.25;;;2.05;;
20480;SDS011;10399;50.754;3.366;2024-03-23T15:46:02;7.10;;;1.92;;
20480;SDS011;10399;50.754;3.366;2024-03-23T15:48:30;6.95;;;1.45;;